Аэропорт: им. Гейдара Алиева. Баку

ICAO: UBBB

METAR:
2020-08-12 05:30:00
UBBB 120530Z 35022KT CAVOK 28/16 Q1010 R88/D NOSIG
METAR:
2020-08-11 23:31:00
TAF UBBB 112331Z 1200/1224 34014KT CAVOK TX28/1209Z TN24/1201Z BECMG 1202/1204 34024G34KT FEW050CB BECMG 1212/1214 36014KT TEMPO 1218/1224 34006KT